Time;durP1;ratioP1;P1;durP2;ratioP2;P2;SDS_P1;SDS_P2;PMS_P1;PMS_P2;Temp;Humidity;BMP_temperature;BMP_pressure;BME280_temperature;BME280_humidity;BME280_pressure;Samples;Min_cycle;Max_cycle;Signal;HPM_P1;HPM_P2
2023/09/27 00:00:20;;;;;;;9.55;3.83;;;;;;;22.74;100.00;101559.09;5021030;28;20474;-53
2023/09/27 00:02:47;;;;;;;9.57;4.32;;;;;;;22.67;100.00;101556.59;5029062;28;20033;-51
2023/09/27 00:05:14;;;;;;;9.23;4.00;;;;;;;22.65;100.00;101551.44;5013288;28;20132;-49
2023/09/27 00:07:41;;;;;;;8.02;3.55;;;;;;;22.68;100.00;101546.84;5016894;28;20049;-53
2023/09/27 00:10:09;;;;;;;12.98;4.65;;;;;;;22.65;100.00;101548.59;5024459;28;20459;-50
2023/09/27 00:12:37;;;;;;;9.30;4.45;;;;;;;22.70;100.00;101549.97;5021782;28;20050;-49
2023/09/27 00:15:05;;;;;;;12.90;4.82;;;;;;;22.71;100.00;101557.22;5028064;28;20045;-49
2023/09/27 00:17:32;;;;;;;9.60;4.15;;;;;;;22.66;100.00;101550.16;5029169;28;20555;-50
2023/09/27 00:19:59;;;;;;;9.80;4.15;;;;;;;22.65;100.00;101559.16;5013612;28;20054;-55
2023/09/27 00:22:29;;;;;;;10.02;4.00;;;;;;;22.67;100.00;101559.44;5025425;28;20061;-53
2023/09/27 00:24:56;;;;;;;10.07;4.32;;;;;;;22.66;100.00;101555.81;5019607;28;20052;-54
2023/09/27 00:27:24;;;;;;;8.98;3.88;;;;;;;22.68;100.00;101558.94;5027962;28;20584;-51
2023/09/27 00:29:51;;;;;;;10.13;3.88;;;;;;;22.66;100.00;101563.53;5026506;28;20057;-48
2023/09/27 00:32:18;;;;;;;11.65;3.90;;;;;;;22.66;100.00;101572.03;5018465;28;20074;-50
2023/09/27 00:34:45;;;;;;;8.52;3.92;;;;;;;22.67;100.00;101571.56;5024030;28;20061;-49
2023/09/27 00:37:11;;;;;;;6.15;3.55;;;;;;;22.68;100.00;101572.34;5017811;28;20045;-53
2023/09/27 00:39:41;;;;;;;10.73;4.38;;;;;;;22.69;100.00;101574.72;5015876;28;20180;-48
2023/09/27 00:42:08;;;;;;;8.63;3.80;;;;;;;22.70;100.00;101576.28;5022089;28;20052;-48
2023/09/27 00:44:35;;;;;;;8.55;3.58;;;;;;;22.67;100.00;101580.06;5027691;28;20050;-48
2023/09/27 00:47:03;;;;;;;8.00;3.67;;;;;;;22.67;100.00;101571.56;5022248;28;20163;-51
2023/09/27 00:49:30;;;;;;;8.15;3.45;;;;;;;22.69;100.00;101573.91;5012936;28;20050;-48
2023/09/27 00:51:58;;;;;;;8.98;3.80;;;;;;;22.65;100.00;101585.44;5023049;28;20136;-48
2023/09/27 00:54:25;;;;;;;10.95;4.32;;;;;;;22.67;100.00;101590.59;5026218;28;20045;-47
2023/09/27 00:56:52;;;;;;;10.85;3.88;;;;;;;22.64;100.00;101594.44;5020535;28;20192;-50
2023/09/27 00:59:19;;;;;;;9.32;4.25;;;;;;;22.65;100.00;101599.63;5023463;28;20128;-47
2023/09/27 01:01:46;;;;;;;10.18;3.70;;;;;;;22.65;100.00;101596.78;5022307;28;20054;-49
2023/09/27 01:04:13;;;;;;;9.82;4.07;;;;;;;22.66;100.00;101603.22;5019799;28;20050;-49
2023/09/27 01:06:41;;;;;;;9.40;3.90;;;;;;;22.62;100.00;101611.13;5022347;28;20570;-52
2023/09/27 01:09:08;;;;;;;8.20;4.00;;;;;;;22.63;100.00;101609.84;5026728;28;20133;-52
2023/09/27 01:11:34;;;;;;;8.60;3.90;;;;;;;22.63;100.00;101607.81;5022514;28;20045;-53
2023/09/27 01:14:01;;;;;;;7.28;3.40;;;;;;;22.64;100.00;101611.44;5014991;28;20133;-51
2023/09/27 01:16:27;;;;;;;9.55;4.05;;;;;;;22.61;100.00;101613.16;5021286;28;20045;-49
2023/09/27 01:18:54;;;;;;;8.93;4.10;;;;;;;22.62;100.00;101619.63;5010651;28;20056;-49
2023/09/27 01:21:21;;;;;;;10.95;4.03;;;;;;;22.60;100.00;101616.47;5021801;28;20064;-50
2023/09/27 01:23:50;;;;;;;9.25;3.58;;;;;;;22.59;100.00;101614.91;5020527;28;20091;-51
2023/09/27 01:26:18;;;;;;;7.47;3.70;;;;;;;22.61;100.00;101620.88;5018073;28;21869;-49
2023/09/27 01:28:46;;;;;;;9.10;4.20;;;;;;;22.66;100.00;101620.22;5026688;28;20111;-54
2023/09/27 01:31:13;;;;;;;7.18;3.75;;;;;;;22.65;100.00;101627.97;5026826;28;20119;-50
2023/09/27 01:33:40;;;;;;;9.65;3.72;;;;;;;22.62;100.00;101631.75;5013387;28;20041;-51
2023/09/27 01:36:07;;;;;;;6.13;3.15;;;;;;;22.64;100.00;101619.94;5016652;28;20069;-50
2023/09/27 01:38:34;;;;;;;6.20;3.10;;;;;;;22.67;100.00;101611.25;5018374;28;20138;-54
2023/09/27 01:41:01;;;;;;;6.00;3.17;;;;;;;22.64;100.00;101600.09;5027471;28;20137;-48
2023/09/27 01:43:27;;;;;;;7.00;3.63;;;;;;;22.65;100.00;101607.31;5028409;28;20785;-49
2023/09/27 01:45:54;;;;;;;7.75;3.80;;;;;;;22.63;100.00;101609.84;5021401;28;20198;-48
2023/09/27 01:48:21;;;;;;;8.80;3.35;;;;;;;22.62;100.00;101616.78;5023829;28;20982;-48
2023/09/27 01:50:48;;;;;;;8.02;3.30;;;;;;;22.65;100.00;101615.81;5014926;28;20050;-48
2023/09/27 01:53:15;;;;;;;7.28;3.67;;;;;;;22.64;100.00;101625.59;5023423;28;20673;-49
2023/09/27 01:55:41;;;;;;;6.45;3.40;;;;;;;22.63;100.00;101635.34;5017698;28;20052;-51
2023/09/27 01:58:08;;;;;;;8.35;3.30;;;;;;;22.61;100.00;101641.50;5035442;28;20534;-49
2023/09/27 02:00:35;;;;;;;7.10;2.95;;;;;;;22.73;100.00;101642.53;5021058;28;20092;-49
2023/09/27 02:03:03;;;;;;;6.80;3.47;;;;;;;22.69;100.00;101624.94;5009207;28;20052;-50
2023/09/27 02:05:30;;;;;;;7.70;3.13;;;;;;;22.70;100.00;101624.47;5010205;28;20096;-50
2023/09/27 02:07:57;;;;;;;7.63;3.53;;;;;;;22.72;100.00;101618.31;5020139;28;20093;-49
2023/09/27 02:10:24;;;;;;;9.07;3.35;;;;;;;22.69;100.00;101622.09;5013856;28;20067;-48
2023/09/27 02:12:51;;;;;;;8.40;3.28;;;;;;;22.72;100.00;101623.97;5009098;28;20465;-51
2023/09/27 02:15:18;;;;;;;7.82;2.95;;;;;;;22.69;100.00;101622.91;5008231;28;20045;-50
2023/09/27 02:17:44;;;;;;;8.70;3.45;;;;;;;22.67;100.00;101622.59;5013442;28;20052;-52
2023/09/27 02:20:17;;;;;;;6.07;3.33;;;;;;;22.68;100.00;101631.88;5007999;28;20638;-48
2023/09/27 02:22:47;;;;;;;8.73;3.78;;;;;;;22.66;100.00;101620.22;5008236;28;20038;-51
2023/09/27 02:25:14;;;;;;;9.40;3.20;;;;;;;22.66;100.00;101631.56;5012683;28;20054;-51
2023/09/27 02:27:42;;;;;;;7.80;3.55;;;;;;;22.66;100.00;101623.84;5010753;28;20053;-50
2023/09/27 02:30:13;;;;;;;8.40;3.47;;;;;;;22.67;100.00;101624.63;5008009;28;20050;-49
2023/09/27 02:32:41;;;;;;;6.53;3.05;;;;;;;22.65;100.00;101627.16;5008095;28;20125;-48
2023/09/27 02:35:09;;;;;;;8.75;2.88;;;;;;;22.65;100.00;101627.16;5012597;28;20056;-48
2023/09/27 02:37:38;;;;;;;7.32;3.25;;;;;;;22.64;100.00;101619.94;5012839;28;20117;-48
2023/09/27 02:40:14;;;;;;;7.30;3.45;;;;;;;22.64;100.00;101625.59;5017355;28;20054;-47
2023/09/27 02:42:44;;;;;;;8.88;3.08;;;;;;;22.65;100.00;101615.81;5017876;28;20042;-47
2023/09/27 02:45:11;;;;;;;6.45;3.10;;;;;;;22.63;100.00;101609.84;5012881;28;20495;-47
2023/09/27 02:47:39;;;;;;;8.18;2.92;;;;;;;22.64;100.00;101602.94;5014205;28;20551;-46
2023/09/27 02:50:10;;;;;;;8.90;4.40;;;;;;;22.65;100.00;101601.66;5010803;28;20056;-48
2023/09/27 02:52:40;;;;;;;7.20;3.28;;;;;;;22.63;100.00;101593.63;5011353;28;20054;-48
2023/09/27 02:55:10;;;;;;;7.63;3.55;;;;;;;22.62;100.00;101596.94;5013659;28;20130;-48
2023/09/27 02:57:37;;;;;;;7.20;3.40;;;;;;;22.64;100.00;101594.44;5011219;28;20053;-48
2023/09/27 03:00:06;;;;;;;7.43;3.50;;;;;;;22.60;100.00;101588.13;5010443;28;20062;-47
2023/09/27 03:02:33;;;;;;;7.35;3.28;;;;;;;22.63;100.00;101573.00;5011202;28;20045;-47
2023/09/27 03:05:00;;;;;;;7.45;3.28;;;;;;;22.63;100.00;101585.13;5012301;28;20046;-47
2023/09/27 03:07:27;;;;;;;6.05;3.15;;;;;;;22.65;100.00;101570.47;5011277;28;20412;-47
2023/09/27 03:09:53;;;;;;;6.05;2.95;;;;;;;22.64;100.00;101566.09;5009814;28;20061;-50
2023/09/27 03:12:20;;;;;;;7.03;3.30;;;;;;;22.64;100.00;101566.09;5015978;28;20136;-50
2023/09/27 03:14:46;;;;;;;8.40;3.65;;;;;;;22.65;100.00;101568.44;5017499;28;20049;-49
2023/09/27 03:17:13;;;;;;;7.57;3.08;;;;;;;22.64;100.00;101566.09;5016140;28;20058;-50
2023/09/27 03:19:39;;;;;;;8.63;3.40;;;;;;;22.64;100.00;101566.09;5013166;28;20053;-47
2023/09/27 03:22:07;;;;;;;6.03;2.65;;;;;;;22.59;100.00;101564.69;5011088;28;20128;-48
2023/09/27 03:24:34;;;;;;;7.22;3.35;;;;;;;22.62;100.00;101574.28;5010755;28;20495;-47
2023/09/27 03:27:02;;;;;;;4.97;2.70;;;;;;;22.62;100.00;101579.94;5013465;28;20060;-46
2023/09/27 03:29:30;;;;;;;4.20;2.50;;;;;;;22.60;100.00;101576.78;5008391;28;20046;-51
2023/09/27 03:31:57;;;;;;;7.32;2.80;;;;;;;22.59;100.00;101587.38;5011971;28;20045;-50
2023/09/27 03:34:23;;;;;;;7.40;2.97;;;;;;;22.61;100.00;101584.03;5014836;28;20056;-48
2023/09/27 03:36:55;;;;;;;5.45;2.70;;;;;;;22.60;100.00;101588.13;5010118;28;20053;-47
2023/09/27 03:39:22;;;;;;;7.05;3.03;;;;;;;22.59;100.00;101584.53;5010885;28;20183;-49
2023/09/27 03:41:50;;;;;;;9.13;3.00;;;;;;;22.59;100.00;101572.41;5010430;28;20104;-49
2023/09/27 03:44:17;;;;;;;5.70;3.10;;;;;;;22.59;100.00;101570.34;5012093;28;20053;-50
2023/09/27 03:46:43;;;;;;;6.70;2.60;;;;;;;22.58;100.00;101573.66;5012630;28;20515;-48
2023/09/27 03:49:12;;;;;;;7.22;2.88;;;;;;;22.57;100.00;101572.06;5010287;28;20042;-47
2023/09/27 03:51:39;;;;;;;8.02;2.92;;;;;;;22.57;100.00;101572.06;5010323;28;20132;-47
2023/09/27 03:54:06;;;;;;;7.28;2.95;;;;;;;22.58;100.00;101568.00;5010211;28;20088;-47
2023/09/27 03:56:32;;;;;;;6.32;2.83;;;;;;;22.56;100.00;101571.31;5016852;28;20129;-47
2023/09/27 03:58:59;;;;;;;5.85;2.88;;;;;;;22.57;100.00;101567.22;5009531;28;20049;-47
2023/09/27 04:01:26;;;;;;;7.22;2.80;;;;;;;22.58;100.00;101562.34;5026321;28;20054;-47
2023/09/27 04:03:52;;;;;;;6.50;2.72;;;;;;;22.55;100.00;101566.91;5024744;28;20110;-49
2023/09/27 04:06:19;;;;;;;6.88;3.10;;;;;;;22.58;100.00;101570.84;5018280;28;20089;-48
2023/09/27 04:08:46;;;;;;;6.30;2.92;;;;;;;22.58;100.00;101580.09;5024252;28;20591;-48
2023/09/27 04:11:12;;;;;;;7.47;3.22;;;;;;;22.58;100.00;101587.84;5026225;28;20123;-49
2023/09/27 04:13:39;;;;;;;5.90;2.95;;;;;;;22.57;100.00;101580.59;5026962;28;20045;-47
2023/09/27 04:16:06;;;;;;;4.53;2.47;;;;;;;22.56;100.00;101579.03;5030321;28;20053;-48
2023/09/27 04:18:33;;;;;;;6.95;2.92;;;;;;;22.56;100.00;101584.69;5028392;28;20072;-48
2023/09/27 04:21:09;;;;;;;4.88;2.53;;;;;;;22.55;100.00;101592.44;5029651;28;20103;-47
2023/09/27 04:23:36;;;;;;;4.15;2.38;;;;;;;22.57;100.00;101586.25;5023031;28;20503;-48
2023/09/27 04:26:06;;;;;;;5.65;2.90;;;;;;;22.59;100.00;101586.56;5018352;28;20420;-50
2023/09/27 04:28:33;;;;;;;7.25;2.58;;;;;;;22.55;100.00;101586.75;5018738;28;20056;-49
2023/09/27 04:31:00;;;;;;;4.85;2.80;;;;;;;22.54;100.00;101590.84;5028345;28;20478;-47
2023/09/27 04:33:27;;;;;;;7.97;2.95;;;;;;;22.55;100.00;101591.63;5025187;28;20049;-49
2023/09/27 04:35:53;;;;;;;6.82;2.90;;;;;;;22.55;100.00;101600.94;5018617;28;20084;-46
2023/09/27 04:38:21;;;;;;;5.60;2.58;;;;;;;22.54;100.00;101602.16;5027276;28;20504;-47
2023/09/27 04:40:47;;;;;;;4.30;2.50;;;;;;;22.55;100.00;101608.63;5023323;28;20132;-48
2023/09/27 04:43:14;;;;;;;6.20;2.83;;;;;;;22.52;100.00;101603.91;5020439;28;20466;-48
2023/09/27 04:45:40;;;;;;;6.55;2.55;;;;;;;22.52;100.00;101610.38;5024328;28;20045;-49
2023/09/27 04:48:07;;;;;;;6.30;2.97;;;;;;;22.53;100.00;101613.97;5021015;28;20048;-49
2023/09/27 04:50:34;;;;;;;6.32;2.53;;;;;;;22.52;100.00;101609.59;5021109;28;20041;-47
2023/09/27 04:53:01;;;;;;;4.07;2.50;;;;;;;22.52;100.00;101606.75;5015171;28;20048;-47
2023/09/27 04:55:28;;;;;;;7.38;2.45;;;;;;;22.49;100.00;101604.88;5018877;28;20576;-49
2023/09/27 04:57:54;;;;;;;4.28;2.33;;;;;;;22.51;100.00;101605.19;5022990;28;20107;-47
2023/09/27 05:00:22;;;;;;;7.22;3.17;;;;;;;22.51;100.00;101602.34;5022626;28;20041;-47
2023/09/27 05:02:50;;;;;;;5.07;2.63;;;;;;;22.50;100.00;101600.75;5024389;28;20061;-46
2023/09/27 05:05:16;;;;;;;5.13;2.67;;;;;;;22.50;100.00;101595.09;5022351;28;20111;-49
2023/09/27 05:07:43;;;;;;;5.03;2.53;;;;;;;22.47;100.00;101596.84;5019339;28;20531;-50
2023/09/27 05:10:10;;;;;;;7.95;2.60;;;;;;;22.50;100.00;101595.09;5025505;28;20503;-46
2023/09/27 05:12:38;;;;;;;5.30;2.40;;;;;;;22.49;100.00;101587.88;5019237;28;20736;-47
2023/09/27 05:15:07;;;;;;;5.38;2.47;;;;;;;22.48;100.00;101595.56;5027593;28;20046;-47
2023/09/27 05:17:34;;;;;;;4.85;2.58;;;;;;;22.52;100.00;101601.09;5010882;28;20132;-46
2023/09/27 05:20:00;;;;;;;4.78;2.70;;;;;;;22.49;100.00;101594.34;5012198;28;20127;-46
2023/09/27 05:22:27;;;;;;;5.68;2.67;;;;;;;22.50;100.00;101597.94;5023935;28;20046;-47
2023/09/27 05:24:53;;;;;;;5.07;2.58;;;;;;;22.50;100.00;101610.06;5024121;28;20076;-47
2023/09/27 05:27:20;;;;;;;8.90;2.92;;;;;;;22.50;100.00;101603.59;5017673;28;20405;-47
2023/09/27 05:29:47;;;;;;;4.13;2.15;;;;;;;22.49;100.00;101610.53;5017579;28;20053;-49
2023/09/27 05:32:14;;;;;;;5.22;2.65;;;;;;;22.51;100.00;101610.88;5025707;28;20139;-47
2023/09/27 05:34:40;;;;;;;4.00;2.42;;;;;;;22.52;100.00;101618.09;5015983;28;20049;-46
2023/09/27 05:37:07;;;;;;;4.55;2.50;;;;;;;22.49;100.00;101610.53;5025867;28;20483;-47
2023/09/27 05:39:33;;;;;;;4.38;2.55;;;;;;;22.49;100.00;101617.00;5020224;28;20088;-49
2023/09/27 05:42:00;;;;;;;4.90;2.70;;;;;;;22.51;100.00;101619.38;5015981;28;21900;-50
2023/09/27 05:44:26;;;;;;;4.75;2.58;;;;;;;22.50;100.00;101621.41;5020655;28;20046;-47
2023/09/27 05:46:53;;;;;;;5.20;2.90;;;;;;;22.49;100.00;101622.66;5019435;28;20058;-48
2023/09/27 05:49:20;;;;;;;4.53;2.22;;;;;;;22.50;100.00;101626.28;5015200;28;20076;-47
2023/09/27 05:51:47;;;;;;;5.65;2.45;;;;;;;22.49;100.00;101634.00;5014676;28;20411;-47
2023/09/27 05:54:13;;;;;;;4.05;2.47;;;;;;;22.48;100.00;101632.41;5027538;28;20053;-46
2023/09/27 05:56:40;;;;;;;5.35;2.65;;;;;;;22.49;100.00;101627.53;5018229;28;20137;-47
2023/09/27 05:59:08;;;;;;;4.35;2.45;;;;;;;22.47;100.00;101638.59;5021938;28;20054;-48
2023/09/27 06:01:35;;;;;;;5.07;2.35;;;;;;;22.49;100.00;101621.88;5019610;28;20045;-47
2023/09/27 06:04:02;;;;;;;9.70;2.83;;;;;;;22.57;100.00;101618.22;5010499;28;20049;-50
2023/09/27 06:06:29;;;;;;;9.02;2.92;;;;;;;22.56;100.00;101618.69;5017296;28;20132;-51
2023/09/27 06:08:56;;;;;;;11.15;2.80;;;;;;;22.55;100.00;101617.13;5018985;28;20132;-50
2023/09/27 06:11:22;;;;;;;5.85;2.15;;;;;;;22.54;100.00;101629.75;5019373;28;20054;-48
2023/09/27 06:13:49;;;;;;;5.88;2.55;;;;;;;22.53;100.00;101639.47;5020817;28;20053;-47
2023/09/27 06:16:19;;;;;;;5.55;2.50;;;;;;;22.53;100.00;101648.78;5019095;28;20119;-47
2023/09/27 06:18:46;;;;;;;9.80;2.75;;;;;;;22.53;100.00;101656.50;5017219;28;20145;-50
2023/09/27 06:21:13;;;;;;;5.05;2.45;;;;;;;22.52;100.00;101654.94;5017152;28;20112;-48
2023/09/27 06:23:40;;;;;;;4.30;2.30;;;;;;;22.51;100.00;101651.28;5016924;28;20467;-47
2023/09/27 06:26:07;;;;;;;5.10;2.55;;;;;;;22.50;100.00;101632.72;5014071;28;20046;-47
2023/09/27 06:28:37;;;;;;;5.75;2.30;;;;;;;22.51;100.00;101622.97;5015747;28;20133;-46
2023/09/27 06:31:06;;;;;;;4.70;2.15;;;;;;;22.50;100.00;101623.44;5015782;28;20079;-46
2023/09/27 06:33:34;;;;;;;4.95;2.60;;;;;;;22.50;100.00;101632.72;5021108;28;20132;-50
2023/09/27 06:36:01;;;;;;;5.55;2.10;;;;;;;22.51;100.00;101637.13;5018761;28;20129;-46
2023/09/27 06:38:27;;;;;;;5.15;2.38;;;;;;;22.53;100.00;101633.81;5011935;28;20080;-49
2023/09/27 06:40:54;;;;;;;5.45;2.47;;;;;;;22.52;100.00;101624.56;5013895;28;20053;-47
2023/09/27 06:43:21;;;;;;;7.60;2.70;;;;;;;22.50;100.00;101627.06;5023785;28;20057;-49
2023/09/27 06:45:49;;;;;;;3.38;1.98;;;;;;;22.50;100.00;101634.78;5033225;28;20049;-48
2023/09/27 06:48:18;;;;;;;6.45;2.33;;;;;;;22.53;100.00;101639.47;5027578;28;20147;-51
2023/09/27 06:50:46;;;;;;;3.30;2.13;;;;;;;22.52;100.00;101640.75;5011551;28;20120;-49
2023/09/27 06:53:14;;;;;;;5.95;2.20;;;;;;;22.52;100.00;101635.88;5023074;28;20057;-48
2023/09/27 06:55:53;;;;;;;4.80;2.35;;;;;;;22.53;100.00;101633.81;5020814;28;20050;-47
2023/09/27 06:58:24;;;;;;;5.07;2.10;;;;;;;22.55;100.00;101625.63;5025484;28;20100;-49
2023/09/27 07:00:52;;;;;;;7.68;2.60;;;;;;;22.52;100.00;101620.91;5026026;28;20049;-49
2023/09/27 07:03:24;;;;;;;8.88;3.17;;;;;;;22.51;100.00;101619.38;5028929;28;20053;-50
2023/09/27 07:05:52;;;;;;;8.27;2.60;;;;;;;22.51;100.00;101613.69;5022805;28;20049;-49
2023/09/27 07:08:18;;;;;;;4.82;2.33;;;;;;;22.53;100.00;101616.81;5029190;28;20100;-49
2023/09/27 07:10:45;;;;;;;7.88;2.90;;;;;;;22.54;100.00;101622.00;5028670;28;20073;-48
2023/09/27 07:13:11;;;;;;;4.30;2.28;;;;;;;22.53;100.00;101619.66;5022582;28;20405;-50
2023/09/27 07:15:38;;;;;;;7.30;2.70;;;;;;;22.54;100.00;101622.00;5025694;28;20073;-48
2023/09/27 07:18:06;;;;;;;8.93;3.17;;;;;;;22.53;100.00;101625.31;5012508;28;20046;-47
2023/09/27 07:20:34;;;;;;;17.13;4.65;;;;;;;22.48;100.00;101623.16;5013371;28;20084;-48
2023/09/27 07:23:04;;;;;;;15.05;5.13;;;;;;;22.42;100.00;101622.22;5026858;28;20057;-46
2023/09/27 07:25:34;;;;;;;10.68;4.10;;;;;;;22.39;100.00;101615.47;5016394;28;20050;-47
2023/09/27 07:28:05;;;;;;;18.15;4.40;;;;;;;22.42;100.00;101622.22;5030128;28;20045;-48
2023/09/27 07:30:35;;;;;;;16.92;4.40;;;;;;;22.41;100.00;101621.44;5023458;28;20129;-51
2023/09/27 07:33:09;;;;;;;11.73;3.92;;;;;;;22.44;100.00;101640.31;5017990;28;20066;-48
2023/09/27 07:35:38;;;;;;;12.83;4.50;;;;;;;22.45;100.00;101649.59;5018444;28;20124;-48
2023/09/27 07:38:10;;;;;;;12.90;4.05;;;;;;;22.45;100.00;101646.78;5018172;28;20125;-48
2023/09/27 07:40:37;;;;;;;12.13;4.10;;;;;;;22.43;100.00;101637.94;5017362;28;20080;-52
2023/09/27 07:43:03;;;;;;;14.10;4.22;;;;;;;22.46;100.00;101634.97;5014555;28;20508;-48
2023/09/27 07:45:32;;;;;;;10.95;4.18;;;;;;;22.48;100.00;101632.41;5011736;28;20394;-51
2023/09/27 07:47:59;;;;;;;14.77;4.10;;;;;;;22.48;100.00;101632.41;5016102;28;20523;-46
2023/09/27 07:50:28;;;;;;;13.00;4.60;;;;;;;22.50;100.00;101637.59;5018208;28;20050;-48
2023/09/27 07:52:55;;;;;;;20.63;11.57;;;;;;;22.49;100.00;101633.22;5018164;28;20138;-50
2023/09/27 07:55:22;;;;;;;21.77;10.80;;;;;;;22.48;100.00;101637.31;5016655;28;20038;-49
2023/09/27 07:57:49;;;;;;;17.65;8.50;;;;;;;22.46;100.00;101631.31;5017640;28;20084;-48
2023/09/27 08:00:18;;;;;;;16.10;6.10;;;;;;;22.46;100.00;101629.28;5014144;28;20645;-49
2023/09/27 08:02:46;;;;;;;15.93;5.07;;;;;;;22.47;100.00;101630.09;5025320;28;20076;-51
2023/09/27 08:05:16;;;;;;;12.93;4.80;;;;;;;22.46;100.00;101623.63;5009787;28;20050;-51
2023/09/27 08:07:47;;;;;;;11.65;4.55;;;;;;;22.48;100.00;101623.16;5014295;28;20057;-50
2023/09/27 08:10:13;;;;;;;10.48;4.18;;;;;;;22.49;100.00;101617.00;5017498;28;20524;-49
2023/09/27 08:12:43;;;;;;;11.20;4.55;;;;;;;22.47;100.00;101610.25;4977543;28;20137;-47
2023/09/27 08:15:12;;;;;;;8.48;4.20;;;;;;;22.47;100.00;101607.41;4976479;28;20125;-48
2023/09/27 08:17:39;;;;;;;15.95;4.43;;;;;;;22.48;100.00;101603.31;4972933;28;20042;-47
2023/09/27 08:20:09;;;;;;;14.15;4.53;;;;;;;22.48;100.00;101604.09;4974248;28;20047;-49
2023/09/27 08:22:39;;;;;;;13.75;4.30;;;;;;;22.51;100.00;101608.03;4975141;28;20047;-50
2023/09/27 08:25:09;;;;;;;12.48;4.38;;;;;;;22.48;100.00;101611.81;4971722;28;20125;-46
2023/09/27 08:27:36;;;;;;;14.45;4.03;;;;;;;22.48;100.00;101623.16;4979752;28;20050;-48
2023/09/27 08:30:05;;;;;;;10.95;4.40;;;;;;;22.47;100.00;101618.75;4980415;28;20073;-48
2023/09/27 08:32:33;;;;;;;13.88;4.47;;;;;;;22.46;100.00;101612.28;5010969;28;20103;-49
2023/09/27 08:35:02;;;;;;;11.20;4.00;;;;;;;22.43;100.00;101593.41;5014332;28;20503;-51
2023/09/27 08:37:29;;;;;;;11.50;4.18;;;;;;;22.45;100.00;101607.91;5023655;28;20042;-47
2023/09/27 08:39:55;;;;;;;15.85;4.90;;;;;;;22.45;100.00;101605.06;5023046;28;20057;-47
2023/09/27 08:42:23;;;;;;;12.88;4.25;;;;;;;22.44;100.00;101605.53;5028094;28;20045;-50
2023/09/27 08:44:52;;;;;;;10.50;4.03;;;;;;;22.45;100.00;101595.78;5016251;28;20052;-47
2023/09/27 08:47:19;;;;;;;14.73;5.03;;;;;;;22.45;100.00;101604.28;5019662;28;20053;-46
2023/09/27 08:49:50;;;;;;;12.20;4.32;;;;;;;22.46;100.00;101597.31;5017649;28;20049;-48
2023/09/27 08:52:17;;;;;;;9.32;4.40;;;;;;;22.43;100.00;101592.63;5025279;28;20045;-48
2023/09/27 08:54:44;;;;;;;11.38;4.35;;;;;;;22.43;100.00;101587.75;5020231;28;20499;-51
2023/09/27 08:57:11;;;;;;;12.60;4.45;;;;;;;22.41;100.00;101587.44;5020449;28;20119;-48
2023/09/27 08:59:39;;;;;;;9.52;3.75;;;;;;;22.42;100.00;101582.56;5017543;28;20053;-48
2023/09/27 09:02:06;;;;;;;13.43;4.53;;;;;;;22.43;100.00;101587.75;4996615;28;20125;-47
2023/09/27 09:04:33;;;;;;;10.38;4.03;;;;;;;22.42;100.00;101580.50;5022327;28;20499;-48
2023/09/27 09:07:02;;;;;;;12.98;4.20;;;;;;;22.41;100.00;101578.94;5020892;28;20041;-48
2023/09/27 09:09:30;;;;;;;12.20;3.70;;;;;;;22.42;100.00;101571.22;5015291;28;20046;-50
2023/09/27 09:12:00;;;;;;;9.77;4.15;;;;;;;22.42;100.00;101574.06;5009213;28;20088;-49
2023/09/27 09:14:49;;;;;;;10.02;4.20;;;;;;;22.38;100.00;101581.94;5000190;28;20100;-49
2023/09/27 09:17:19;;;;;;;14.55;5.45;;;;;;;22.30;100.00;101577.88;5017964;28;20107;-47
2023/09/27 09:20:17;;;;;;;10.77;4.97;;;;;;;22.28;100.00;101575.50;5006134;28;20042;-48
2023/09/27 09:22:46;;;;;;;11.52;5.22;;;;;;;22.22;100.00;101580.25;5020750;28;20053;-48
2023/09/27 09:25:12;;;;;;;14.82;5.63;;;;;;;22.19;100.00;101581.22;5019624;28;20042;-47
2023/09/27 09:27:39;;;;;;;14.13;5.85;;;;;;;22.20;100.00;101568.59;5017024;28;20046;-48
2023/09/27 09:30:12;;;;;;;13.70;5.50;;;;;;;22.22;100.00;101565.28;5015292;28;20150;-47
2023/09/27 09:32:50;;;;;;;12.32;5.22;;;;;;;22.22;100.00;101565.28;5026961;28;20045;-47
2023/09/27 09:35:31;;;;;;;11.90;4.95;;;;;;;22.21;100.00;101563.72;5013455;28;20124;-48
2023/09/27 09:37:59;;;;;;;12.55;5.28;;;;;;;22.19;100.00;101569.88;5011331;28;20077;-48
2023/09/27 09:40:25;;;;;;;11.98;5.55;;;;;;;22.18;100.00;101569.06;5010999;28;20062;-49
2023/09/27 09:42:52;;;;;;;9.75;4.78;;;;;;;22.21;100.00;101578.69;5018542;28;20501;-49
2023/09/27 09:45:20;;;;;;;11.57;4.88;;;;;;;22.23;100.00;101584.66;5010118;28;20042;-48
2023/09/27 09:47:46;;;;;;;12.82;5.50;;;;;;;22.23;100.00;101572.53;5018676;28;20085;-51
2023/09/27 09:50:17;;;;;;;15.55;5.53;;;;;;;22.20;100.00;101565.78;5016415;28;20471;-50
2023/09/27 09:52:58;;;;;;;19.58;5.60;;;;;;;22.24;100.00;101569.22;5032119;28;20049;-50
2023/09/27 09:55:27;;;;;;;15.02;5.03;;;;;;;22.33;100.00;101568.41;5029164;28;20153;-48
2023/09/27 09:58:23;;;;;;;12.38;4.40;;;;;;;22.39;100.00;101561.63;5019248;28;20056;-48
2023/09/27 10:00:53;;;;;;;11.55;4.97;;;;;;;22.43;100.00;101562.25;5024003;28;20491;-47
2023/09/27 10:03:22;;;;;;;9.98;4.22;;;;;;;22.44;100.00;101551.72;5017105;28;20157;-47
2023/09/27 10:05:53;;;;;;;13.48;4.93;;;;;;;22.41;100.00;101558.34;5020741;28;20468;-49
2023/09/27 10:08:20;;;;;;;10.73;4.72;;;;;;;22.40;100.00;101549.03;5022368;28;20053;-49
2023/09/27 10:10:47;;;;;;;11.80;4.40;;;;;;;22.43;100.00;101552.94;5021406;28;20436;-49
2023/09/27 10:13:14;;;;;;;10.55;4.10;;;;;;;22.43;100.00;101544.44;5027032;28;20053;-47
2023/09/27 10:15:42;;;;;;;9.82;3.70;;;;;;;22.42;100.00;101549.34;5032006;28;20038;-47
2023/09/27 10:18:21;;;;;;;10.52;4.05;;;;;;;22.44;100.00;101546.81;5031978;28;20154;-50
2023/09/27 10:21:03;;;;;;;7.43;3.78;;;;;;;22.49;100.00;101556.69;5024460;28;20055;-48
2023/09/27 10:23:33;;;;;;;13.30;4.10;;;;;;;22.45;100.00;101550.44;5022279;28;20127;-48
2023/09/27 10:26:20;;;;;;;13.00;4.00;;;;;;;22.55;100.00;101557.63;5018423;28;20038;-47
2023/09/27 10:29:04;;;;;;;9.38;4.70;;;;;;;22.49;100.00;101557.50;5022879;28;20045;-48
2023/09/27 10:31:32;;;;;;;10.75;4.22;;;;;;;22.55;100.00;101564.09;5026156;28;20598;-49
2023/09/27 10:33:59;;;;;;;12.20;4.28;;;;;;;22.60;100.00;101559.78;5026866;28;20571;-51
2023/09/27 10:36:27;;;;;;;15.07;3.90;;;;;;;22.64;100.00;101549.09;5013409;28;20083;-49
2023/09/27 10:38:54;;;;;;;15.55;4.20;;;;;;;22.60;100.00;101548.44;5014852;28;20064;-48
2023/09/27 10:41:33;;;;;;;11.85;3.97;;;;;;;22.61;100.00;101542.31;5017051;28;20050;-46
2023/09/27 10:44:02;;;;;;;10.13;3.97;;;;;;;22.57;100.00;101536.03;5021889;28;20041;-46
2023/09/27 10:46:48;;;;;;;13.13;4.18;;;;;;;22.59;100.00;101529.88;5020796;28;20045;-46
2023/09/27 10:49:24;;;;;;;10.02;3.88;;;;;;;22.58;100.00;101528.31;5018712;28;20050;-46
2023/09/27 10:51:52;;;;;;;11.27;3.50;;;;;;;22.59;100.00;101527.06;5021392;28;20435;-46
2023/09/27 10:54:33;;;;;;;10.90;4.30;;;;;;;22.61;100.00;101521.69;5017746;28;20045;-50
2023/09/27 10:57:02;;;;;;;11.00;3.92;;;;;;;22.61;100.00;101516.03;5021412;28;20087;-50
2023/09/27 10:59:29;;;;;;;8.75;3.55;;;;;;;22.65;100.00;101516.63;5015423;28;20060;-48
2023/09/27 11:01:56;;;;;;;9.15;4.60;;;;;;;22.66;100.00;101518.19;5014179;28;20045;-47
2023/09/27 11:04:24;;;;;;;9.60;3.70;;;;;;;22.68;100.00;101510.00;5022043;28;20071;-50
2023/09/27 11:06:51;;;;;;;9.35;3.45;;;;;;;22.67;100.00;101509.22;5019450;28;20056;-50
2023/09/27 11:09:19;;;;;;;12.15;4.28;;;;;;;22.69;100.00;101508.72;5019332;28;20045;-48
2023/09/27 11:11:47;;;;;;;8.98;3.83;;;;;;;22.70;100.00;101507.44;5015025;28;20050;-46
2023/09/27 11:14:33;;;;;;;7.18;3.55;;;;;;;22.72;100.00;101502.09;5015895;28;20049;-44
2023/09/27 11:17:15;;;;;;;7.28;3.33;;;;;;;22.64;100.00;101493.16;5021407;28;20039;-41
2023/09/27 11:19:42;;;;;;;11.35;4.28;;;;;;;22.59;100.00;101491.00;5015177;28;20041;-42